sensor_id;sensor_type;location;lat;lon;timestamp;P1;durP1;ratioP1;P2;durP2;ratioP2
10661;SDS011;5379;51.034;7.006;2023-02-01T00:01:04;13.73;;;4.63;;
10661;SDS011;5379;51.034;7.006;2023-02-01T00:03:32;13.77;;;5.47;;
10661;SDS011;5379;51.034;7.006;2023-02-01T00:05:59;6.77;;;4.93;;
10661;SDS011;5379;51.034;7.006;2023-02-01T00:08:26;12.60;;;4.90;;
10661;SDS011;5379;51.034;7.006;2023-02-01T00:10:59;9.40;;;4.80;;
10661;SDS011;5379;51.034;7.006;2023-02-01T00:13:28;4.80;;;3.43;;
10661;SDS011;5379;51.034;7.006;2023-02-01T00:16:03;8.63;;;4.57;;
10661;SDS011;5379;51.034;7.006;2023-02-01T00:18:30;7.07;;;3.97;;
10661;SDS011;5379;51.034;7.006;2023-02-01T00:20:58;8.30;;;3.83;;
10661;SDS011;5379;51.034;7.006;2023-02-01T00:23:25;5.03;;;4.00;;
10661;SDS011;5379;51.034;7.006;2023-02-01T00:25:53;12.57;;;4.70;;
10661;SDS011;5379;51.034;7.006;2023-02-01T00:28:20;10.83;;;5.53;;
10661;SDS011;5379;51.034;7.006;2023-02-01T00:30:47;14.83;;;5.47;;
10661;SDS011;5379;51.034;7.006;2023-02-01T00:33:23;7.57;;;4.50;;
10661;SDS011;5379;51.034;7.006;2023-02-01T00:35:50;11.70;;;4.97;;
10661;SDS011;5379;51.034;7.006;2023-02-01T00:38:22;8.67;;;5.47;;
10661;SDS011;5379;51.034;7.006;2023-02-01T00:40:49;6.57;;;4.87;;
10661;SDS011;5379;51.034;7.006;2023-02-01T00:43:16;10.70;;;4.60;;
10661;SDS011;5379;51.034;7.006;2023-02-01T00:45:42;11.80;;;4.70;;
10661;SDS011;5379;51.034;7.006;2023-02-01T00:48:11;6.57;;;3.83;;
10661;SDS011;5379;51.034;7.006;2023-02-01T00:50:42;10.83;;;4.90;;
10661;SDS011;5379;51.034;7.006;2023-02-01T00:53:09;14.10;;;4.80;;
10661;SDS011;5379;51.034;7.006;2023-02-01T00:55:37;9.03;;;4.30;;
10661;SDS011;5379;51.034;7.006;2023-02-01T00:58:04;8.87;;;4.37;;
10661;SDS011;5379;51.034;7.006;2023-02-01T05:30:34;7.73;;;3.67;;
10661;SDS011;5379;51.034;7.006;2023-02-01T05:33:01;7.60;;;3.30;;
10661;SDS011;5379;51.034;7.006;2023-02-01T05:35:28;10.03;;;3.43;;
10661;SDS011;5379;51.034;7.006;2023-02-01T05:37:55;6.33;;;3.60;;
10661;SDS011;5379;51.034;7.006;2023-02-01T05:40:22;7.57;;;3.60;;
10661;SDS011;5379;51.034;7.006;2023-02-01T05:42:49;4.63;;;2.87;;
10661;SDS011;5379;51.034;7.006;2023-02-01T05:45:16;16.27;;;3.40;;
10661;SDS011;5379;51.034;7.006;2023-02-01T05:47:45;8.87;;;3.47;;
10661;SDS011;5379;51.034;7.006;2023-02-01T05:50:11;12.37;;;4.13;;
10661;SDS011;5379;51.034;7.006;2023-02-01T05:52:38;11.97;;;3.67;;
10661;SDS011;5379;51.034;7.006;2023-02-01T05:55:06;15.30;;;3.63;;
10661;SDS011;5379;51.034;7.006;2023-02-01T05:57:33;10.80;;;3.07;;
10661;SDS011;5379;51.034;7.006;2023-02-01T06:00:00;9.50;;;3.20;;
10661;SDS011;5379;51.034;7.006;2023-02-01T06:02:27;11.80;;;3.07;;
10661;SDS011;5379;51.034;7.006;2023-02-01T06:04:56;12.57;;;3.17;;
10661;SDS011;5379;51.034;7.006;2023-02-01T06:07:23;8.73;;;3.30;;
10661;SDS011;5379;51.034;7.006;2023-02-01T06:09:50;9.77;;;3.80;;
10661;SDS011;5379;51.034;7.006;2023-02-01T06:12:17;9.17;;;3.47;;
10661;SDS011;5379;51.034;7.006;2023-02-01T06:14:43;7.27;;;2.90;;
10661;SDS011;5379;51.034;7.006;2023-02-01T06:17:10;10.57;;;3.33;;
10661;SDS011;5379;51.034;7.006;2023-02-01T06:19:37;7.67;;;3.10;;
10661;SDS011;5379;51.034;7.006;2023-02-01T06:22:07;3.97;;;2.57;;
10661;SDS011;5379;51.034;7.006;2023-02-01T06:24:33;10.70;;;3.80;;
10661;SDS011;5379;51.034;7.006;2023-02-01T06:27:00;10.40;;;3.33;;
10661;SDS011;5379;51.034;7.006;2023-02-01T06:29:27;11.13;;;3.00;;
10661;SDS011;5379;51.034;7.006;2023-02-01T06:31:54;6.30;;;3.50;;
10661;SDS011;5379;51.034;7.006;2023-02-01T06:34:21;8.73;;;4.20;;
10661;SDS011;5379;51.034;7.006;2023-02-01T06:36:49;9.30;;;3.20;;
10661;SDS011;5379;51.034;7.006;2023-02-01T06:39:18;7.30;;;3.30;;
10661;SDS011;5379;51.034;7.006;2023-02-01T06:41:45;7.60;;;3.00;;
10661;SDS011;5379;51.034;7.006;2023-02-01T06:44:13;5.07;;;3.27;;
10661;SDS011;5379;51.034;7.006;2023-02-01T06:46:40;7.90;;;3.43;;
10661;SDS011;5379;51.034;7.006;2023-02-01T06:49:07;7.60;;;3.27;;
10661;SDS011;5379;51.034;7.006;2023-02-01T06:51:34;6.10;;;3.00;;
10661;SDS011;5379;51.034;7.006;2023-02-01T06:54:01;10.57;;;3.13;;
10661;SDS011;5379;51.034;7.006;2023-02-01T06:56:30;9.80;;;3.37;;
10661;SDS011;5379;51.034;7.006;2023-02-01T06:58:57;8.83;;;3.77;;
10661;SDS011;5379;51.034;7.006;2023-02-01T07:01:25;11.37;;;3.20;;
10661;SDS011;5379;51.034;7.006;2023-02-01T07:03:52;11.27;;;3.43;;
10661;SDS011;5379;51.034;7.006;2023-02-01T07:06:19;12.47;;;2.90;;
10661;SDS011;5379;51.034;7.006;2023-02-01T07:08:46;6.37;;;3.37;;
10661;SDS011;5379;51.034;7.006;2023-02-01T07:11:14;6.80;;;2.93;;
10661;SDS011;5379;51.034;7.006;2023-02-01T07:13:44;7.87;;;3.43;;
10661;SDS011;5379;51.034;7.006;2023-02-01T07:16:12;7.90;;;3.27;;
10661;SDS011;5379;51.034;7.006;2023-02-01T07:18:41;6.70;;;3.27;;
10661;SDS011;5379;51.034;7.006;2023-02-01T07:21:08;13.40;;;3.53;;
10661;SDS011;5379;51.034;7.006;2023-02-01T07:23:35;16.93;;;4.20;;
10661;SDS011;5379;51.034;7.006;2023-02-01T07:26:04;7.97;;;3.20;;
10661;SDS011;5379;51.034;7.006;2023-02-01T07:28:33;9.13;;;3.43;;
10661;SDS011;5379;51.034;7.006;2023-02-01T07:31:04;10.17;;;3.83;;
10661;SDS011;5379;51.034;7.006;2023-02-01T07:33:31;10.63;;;3.67;;
10661;SDS011;5379;51.034;7.006;2023-02-01T07:36:00;13.07;;;3.60;;
10661;SDS011;5379;51.034;7.006;2023-02-01T07:38:28;11.90;;;4.30;;
10661;SDS011;5379;51.034;7.006;2023-02-01T07:40:56;17.27;;;3.87;;
10661;SDS011;5379;51.034;7.006;2023-02-01T07:43:24;14.20;;;3.37;;
10661;SDS011;5379;51.034;7.006;2023-02-01T07:45:52;6.27;;;3.33;;
10661;SDS011;5379;51.034;7.006;2023-02-01T07:48:21;15.87;;;4.00;;
10661;SDS011;5379;51.034;7.006;2023-02-01T07:50:56;8.83;;;2.97;;
10661;SDS011;5379;51.034;7.006;2023-02-01T07:53:23;6.20;;;3.00;;
10661;SDS011;5379;51.034;7.006;2023-02-01T07:55:50;8.00;;;3.40;;
10661;SDS011;5379;51.034;7.006;2023-02-01T07:58:17;6.67;;;3.40;;
10661;SDS011;5379;51.034;7.006;2023-02-01T08:00:44;4.43;;;2.50;;
10661;SDS011;5379;51.034;7.006;2023-02-01T08:03:31;10.90;;;4.03;;
10661;SDS011;5379;51.034;7.006;2023-02-01T08:05:58;6.03;;;3.37;;
10661;SDS011;5379;51.034;7.006;2023-02-01T08:08:25;7.87;;;2.93;;
10661;SDS011;5379;51.034;7.006;2023-02-01T08:10:56;7.10;;;3.50;;
10661;SDS011;5379;51.034;7.006;2023-02-01T08:13:23;8.57;;;3.27;;
10661;SDS011;5379;51.034;7.006;2023-02-01T08:15:50;6.50;;;3.07;;
10661;SDS011;5379;51.034;7.006;2023-02-01T08:18:17;10.40;;;3.33;;
10661;SDS011;5379;51.034;7.006;2023-02-01T08:20:47;8.20;;;3.70;;
10661;SDS011;5379;51.034;7.006;2023-02-01T08:23:14;7.33;;;3.10;;
10661;SDS011;5379;51.034;7.006;2023-02-01T08:25:42;11.73;;;3.77;;
10661;SDS011;5379;51.034;7.006;2023-02-01T08:28:10;10.77;;;3.97;;
10661;SDS011;5379;51.034;7.006;2023-02-01T08:30:37;5.70;;;3.17;;
10661;SDS011;5379;51.034;7.006;2023-02-01T08:33:04;6.03;;;2.97;;
10661;SDS011;5379;51.034;7.006;2023-02-01T08:35:32;4.97;;;3.17;;
10661;SDS011;5379;51.034;7.006;2023-02-01T08:38:02;5.37;;;2.57;;
10661;SDS011;5379;51.034;7.006;2023-02-01T08:40:29;8.97;;;3.73;;
10661;SDS011;5379;51.034;7.006;2023-02-01T08:42:56;10.57;;;3.47;;
10661;SDS011;5379;51.034;7.006;2023-02-01T08:45:26;7.10;;;3.40;;
10661;SDS011;5379;51.034;7.006;2023-02-01T08:47:55;10.80;;;3.53;;
10661;SDS011;5379;51.034;7.006;2023-02-01T08:50:22;4.40;;;2.63;;
10661;SDS011;5379;51.034;7.006;2023-02-01T08:52:50;20.13;;;3.63;;
10661;SDS011;5379;51.034;7.006;2023-02-01T08:55:18;17.37;;;3.90;;
10661;SDS011;5379;51.034;7.006;2023-02-01T08:57:45;6.27;;;3.33;;
10661;SDS011;5379;51.034;7.006;2023-02-01T09:00:17;11.17;;;4.13;;
10661;SDS011;5379;51.034;7.006;2023-02-01T09:02:45;8.90;;;3.27;;
10661;SDS011;5379;51.034;7.006;2023-02-01T09:05:12;8.73;;;3.47;;
10661;SDS011;5379;51.034;7.006;2023-02-01T09:07:41;4.87;;;2.67;;
10661;SDS011;5379;51.034;7.006;2023-02-01T09:10:08;8.30;;;3.43;;
10661;SDS011;5379;51.034;7.006;2023-02-01T09:12:38;13.33;;;3.67;;
10661;SDS011;5379;51.034;7.006;2023-02-01T09:15:05;7.20;;;3.63;;
10661;SDS011;5379;51.034;7.006;2023-02-01T09:17:33;6.53;;;3.27;;
10661;SDS011;5379;51.034;7.006;2023-02-01T09:20:01;7.57;;;3.27;;
10661;SDS011;5379;51.034;7.006;2023-02-01T09:22:29;12.83;;;3.73;;
10661;SDS011;5379;51.034;7.006;2023-02-01T09:24:56;10.40;;;3.57;;
10661;SDS011;5379;51.034;7.006;2023-02-01T09:27:23;7.93;;;3.37;;
10661;SDS011;5379;51.034;7.006;2023-02-01T09:29:51;5.67;;;2.90;;
10661;SDS011;5379;51.034;7.006;2023-02-01T09:32:18;10.80;;;3.90;;
10661;SDS011;5379;51.034;7.006;2023-02-01T09:34:46;10.73;;;3.17;;
10661;SDS011;5379;51.034;7.006;2023-02-01T09:37:13;15.10;;;4.37;;
10661;SDS011;5379;51.034;7.006;2023-02-01T09:39:40;13.33;;;4.37;;
10661;SDS011;5379;51.034;7.006;2023-02-01T09:42:12;9.13;;;3.47;;
10661;SDS011;5379;51.034;7.006;2023-02-01T09:44:56;8.73;;;3.30;;
10661;SDS011;5379;51.034;7.006;2023-02-01T09:47:35;13.07;;;3.50;;
10661;SDS011;5379;51.034;7.006;2023-02-01T09:50:13;6.70;;;2.80;;
10661;SDS011;5379;51.034;7.006;2023-02-01T09:52:45;9.27;;;3.47;;
10661;SDS011;5379;51.034;7.006;2023-02-01T09:55:20;11.53;;;2.93;;
10661;SDS011;5379;51.034;7.006;2023-02-01T09:57:55;10.83;;;3.60;;
10661;SDS011;5379;51.034;7.006;2023-02-01T10:00:27;9.27;;;3.40;;
10661;SDS011;5379;51.034;7.006;2023-02-01T10:02:56;8.53;;;3.80;;
10661;SDS011;5379;51.034;7.006;2023-02-01T10:05:29;11.60;;;3.33;;
10661;SDS011;5379;51.034;7.006;2023-02-01T10:08:09;16.53;;;3.53;;
10661;SDS011;5379;51.034;7.006;2023-02-01T10:10:45;10.17;;;3.57;;
10661;SDS011;5379;51.034;7.006;2023-02-01T10:13:30;7.60;;;3.53;;
10661;SDS011;5379;51.034;7.006;2023-02-01T10:16:16;12.93;;;3.47;;
10661;SDS011;5379;51.034;7.006;2023-02-01T10:21:42;9.93;;;3.93;;
10661;SDS011;5379;51.034;7.006;2023-02-01T10:27:09;15.23;;;3.80;;
10661;SDS011;5379;51.034;7.006;2023-02-01T10:29:40;7.20;;;3.43;;
10661;SDS011;5379;51.034;7.006;2023-02-01T10:32:19;10.53;;;3.90;;
10661;SDS011;5379;51.034;7.006;2023-02-01T10:34:50;10.57;;;3.20;;
10661;SDS011;5379;51.034;7.006;2023-02-01T10:37:23;9.27;;;3.83;;
10661;SDS011;5379;51.034;7.006;2023-02-01T10:39:54;8.10;;;2.83;;
10661;SDS011;5379;51.034;7.006;2023-02-01T10:42:24;9.13;;;3.20;;
10661;SDS011;5379;51.034;7.006;2023-02-01T10:44:52;9.27;;;3.17;;
10661;SDS011;5379;51.034;7.006;2023-02-01T10:47:23;13.73;;;3.27;;
10661;SDS011;5379;51.034;7.006;2023-02-01T10:49:53;13.20;;;2.33;;
10661;SDS011;5379;51.034;7.006;2023-02-01T10:52:31;5.83;;;2.60;;
10661;SDS011;5379;51.034;7.006;2023-02-01T10:57:55;13.73;;;3.50;;
10661;SDS011;5379;51.034;7.006;2023-02-01T11:00:23;13.90;;;3.30;;
10661;SDS011;5379;51.034;7.006;2023-02-01T11:02:52;3.90;;;2.27;;
10661;SDS011;5379;51.034;7.006;2023-02-01T11:05:21;10.27;;;3.30;;
10661;SDS011;5379;51.034;7.006;2023-02-01T11:07:49;5.40;;;2.90;;
10661;SDS011;5379;51.034;7.006;2023-02-01T11:10:35;15.80;;;3.93;;
10661;SDS011;5379;51.034;7.006;2023-02-01T11:13:03;8.20;;;3.17;;
10661;SDS011;5379;51.034;7.006;2023-02-01T11:15:31;7.97;;;3.20;;
10661;SDS011;5379;51.034;7.006;2023-02-01T11:18:07;4.87;;;2.70;;
10661;SDS011;5379;51.034;7.006;2023-02-01T11:20:42;14.73;;;4.07;;
10661;SDS011;5379;51.034;7.006;2023-02-01T11:23:13;7.83;;;3.30;;
10661;SDS011;5379;51.034;7.006;2023-02-01T11:25:47;5.10;;;2.50;;
10661;SDS011;5379;51.034;7.006;2023-02-01T11:28:17;7.63;;;2.93;;
10661;SDS011;5379;51.034;7.006;2023-02-01T11:30:46;8.53;;;2.80;;
10661;SDS011;5379;51.034;7.006;2023-02-01T11:33:16;6.57;;;2.23;;
10661;SDS011;5379;51.034;7.006;2023-02-01T11:35:45;9.00;;;2.67;;
10661;SDS011;5379;51.034;7.006;2023-02-01T11:38:19;24.77;;;3.77;;
10661;SDS011;5379;51.034;7.006;2023-02-01T11:40:48;2.97;;;2.20;;
10661;SDS011;5379;51.034;7.006;2023-02-01T11:43:17;3.20;;;2.33;;
10661;SDS011;5379;51.034;7.006;2023-02-01T11:45:53;9.37;;;2.93;;
10661;SDS011;5379;51.034;7.006;2023-02-01T11:48:24;14.30;;;3.10;;
10661;SDS011;5379;51.034;7.006;2023-02-01T11:50:55;8.10;;;3.50;;
10661;SDS011;5379;51.034;7.006;2023-02-01T11:53:41;7.53;;;2.97;;
10661;SDS011;5379;51.034;7.006;2023-02-01T11:56:26;8.83;;;3.20;;
10661;SDS011;5379;51.034;7.006;2023-02-01T11:59:05;8.57;;;2.70;;
10661;SDS011;5379;51.034;7.006;2023-02-01T12:01:47;8.02;;;2.78;;
10661;SDS011;5379;51.034;7.006;2023-02-01T12:07:38;6.47;;;2.80;;
10661;SDS011;5379;51.034;7.006;2023-02-01T12:10:21;10.63;;;3.40;;
10661;SDS011;5379;51.034;7.006;2023-02-01T12:12:59;2.07;;;1.87;;
10661;SDS011;5379;51.034;7.006;2023-02-01T12:15:37;6.17;;;2.93;;
10661;SDS011;5379;51.034;7.006;2023-02-01T12:21:19;8.03;;;3.27;;
10661;SDS011;5379;51.034;7.006;2023-02-01T12:24:01;4.63;;;2.23;;
10661;SDS011;5379;51.034;7.006;2023-02-01T12:26:50;8.13;;;3.30;;
10661;SDS011;5379;51.034;7.006;2023-02-01T12:29:30;4.97;;;3.00;;
10661;SDS011;5379;51.034;7.006;2023-02-01T12:32:21;4.57;;;2.17;;
10661;SDS011;5379;51.034;7.006;2023-02-01T12:38:16;3.37;;;2.37;;
10661;SDS011;5379;51.034;7.006;2023-02-01T12:40:56;5.73;;;2.33;;
10661;SDS011;5379;51.034;7.006;2023-02-01T12:43:35;17.27;;;2.90;;
10661;SDS011;5379;51.034;7.006;2023-02-01T12:46:07;5.43;;;2.53;;
10661;SDS011;5379;51.034;7.006;2023-02-01T12:48:39;5.10;;;2.33;;
10661;SDS011;5379;51.034;7.006;2023-02-01T12:51:10;5.33;;;2.57;;
10661;SDS011;5379;51.034;7.006;2023-02-01T12:53:46;3.13;;;1.83;;
10661;SDS011;5379;51.034;7.006;2023-02-01T12:56:20;9.00;;;2.40;;
10661;SDS011;5379;51.034;7.006;2023-02-01T12:58:50;11.47;;;3.27;;
10661;SDS011;5379;51.034;7.006;2023-02-01T13:01:20;5.50;;;2.50;;
10661;SDS011;5379;51.034;7.006;2023-02-01T13:03:53;8.77;;;3.03;;
10661;SDS011;5379;51.034;7.006;2023-02-01T13:06:26;9.73;;;3.13;;
10661;SDS011;5379;51.034;7.006;2023-02-01T13:08:59;5.10;;;1.87;;
10661;SDS011;5379;51.034;7.006;2023-02-01T13:11:31;10.17;;;3.37;;
10661;SDS011;5379;51.034;7.006;2023-02-01T13:14:02;6.83;;;2.67;;
10661;SDS011;5379;51.034;7.006;2023-02-01T13:16:34;11.07;;;3.07;;
10661;SDS011;5379;51.034;7.006;2023-02-01T13:19:08;11.60;;;3.10;;
10661;SDS011;5379;51.034;7.006;2023-02-01T13:21:39;14.77;;;3.13;;
10661;SDS011;5379;51.034;7.006;2023-02-01T13:24:16;12.40;;;3.13;;
10661;SDS011;5379;51.034;7.006;2023-02-01T13:26:53;7.93;;;3.10;;
10661;SDS011;5379;51.034;7.006;2023-02-01T13:29:21;13.20;;;4.00;;
10661;SDS011;5379;51.034;7.006;2023-02-01T13:31:54;11.10;;;3.30;;
10661;SDS011;5379;51.034;7.006;2023-02-01T13:34:40;4.93;;;2.87;;
10661;SDS011;5379;51.034;7.006;2023-02-01T13:37:47;4.57;;;2.20;;
10661;SDS011;5379;51.034;7.006;2023-02-01T13:40:46;7.20;;;2.53;;
10661;SDS011;5379;51.034;7.006;2023-02-01T13:43:22;8.20;;;3.37;;
10661;SDS011;5379;51.034;7.006;2023-02-01T13:45:53;10.40;;;3.10;;
10661;SDS011;5379;51.034;7.006;2023-02-01T13:48:24;8.50;;;3.00;;
10661;SDS011;5379;51.034;7.006;2023-02-01T13:50:56;5.07;;;1.83;;
10661;SDS011;5379;51.034;7.006;2023-02-01T13:53:27;6.10;;;2.57;;
10661;SDS011;5379;51.034;7.006;2023-02-01T13:55:58;14.10;;;2.83;;
10661;SDS011;5379;51.034;7.006;2023-02-01T13:58:31;8.90;;;3.33;;
10661;SDS011;5379;51.034;7.006;2023-02-01T14:07:16;5.40;;;2.53;;
10661;SDS011;5379;51.034;7.006;2023-02-01T14:09:45;5.63;;;2.80;;
10661;SDS011;5379;51.034;7.006;2023-02-01T14:15:18;4.00;;;2.27;;
10661;SDS011;5379;51.034;7.006;2023-02-01T14:17:48;7.50;;;2.47;;
10661;SDS011;5379;51.034;7.006;2023-02-01T14:23:21;12.47;;;3.37;;
10661;SDS011;5379;51.034;7.006;2023-02-01T14:26:07;4.13;;;2.30;;
10661;SDS011;5379;51.034;7.006;2023-02-01T14:28:59;2.93;;;2.00;;
10661;SDS011;5379;51.034;7.006;2023-02-01T14:34:26;7.90;;;2.40;;
10661;SDS011;5379;51.034;7.006;2023-02-01T14:37:03;2.33;;;1.30;;
10661;SDS011;5379;51.034;7.006;2023-02-01T14:39:40;11.33;;;2.80;;
10661;SDS011;5379;51.034;7.006;2023-02-01T14:42:22;9.13;;;2.57;;
10661;SDS011;5379;51.034;7.006;2023-02-01T14:44:53;4.57;;;2.17;;
10661;SDS011;5379;51.034;7.006;2023-02-01T14:47:31;2.83;;;1.77;;
10661;SDS011;5379;51.034;7.006;2023-02-01T14:50:02;8.30;;;3.23;;
10661;SDS011;5379;51.034;7.006;2023-02-01T14:52:37;10.33;;;2.80;;
10661;SDS011;5379;51.034;7.006;2023-02-01T14:55:09;3.80;;;1.83;;
10661;SDS011;5379;51.034;7.006;2023-02-01T14:57:40;3.70;;;1.93;;
10661;SDS011;5379;51.034;7.006;2023-02-01T15:00:16;12.43;;;2.57;;
10661;SDS011;5379;51.034;7.006;2023-02-01T15:02:47;8.07;;;2.43;;
10661;SDS011;5379;51.034;7.006;2023-02-01T15:05:26;4.87;;;2.17;;
10661;SDS011;5379;51.034;7.006;2023-02-01T15:08:12;3.67;;;2.23;;
10661;SDS011;5379;51.034;7.006;2023-02-01T15:10:43;4.83;;;2.60;;
10661;SDS011;5379;51.034;7.006;2023-02-01T15:13:18;1.20;;;1.10;;
10661;SDS011;5379;51.034;7.006;2023-02-01T15:18:32;7.40;;;2.73;;
10661;SDS011;5379;51.034;7.006;2023-02-01T15:21:00;11.03;;;2.73;;
10661;SDS011;5379;51.034;7.006;2023-02-01T15:23:28;3.57;;;1.80;;
10661;SDS011;5379;51.034;7.006;2023-02-01T15:25:55;4.90;;;2.40;;
10661;SDS011;5379;51.034;7.006;2023-02-01T15:28:22;5.67;;;2.23;;
10661;SDS011;5379;51.034;7.006;2023-02-01T15:30:54;14.83;;;2.30;;
10661;SDS011;5379;51.034;7.006;2023-02-01T15:33:57;2.50;;;1.63;;
10661;SDS011;5379;51.034;7.006;2023-02-01T15:36:24;3.90;;;2.20;;
10661;SDS011;5379;51.034;7.006;2023-02-01T15:41:55;9.50;;;1.97;;
10661;SDS011;5379;51.034;7.006;2023-02-01T15:44:30;6.03;;;2.57;;
10661;SDS011;5379;51.034;7.006;2023-02-01T15:47:07;7.33;;;2.93;;
10661;SDS011;5379;51.034;7.006;2023-02-01T15:49:40;2.30;;;1.23;;
10661;SDS011;5379;51.034;7.006;2023-02-01T15:52:16;7.30;;;2.60;;
10661;SDS011;5379;51.034;7.006;2023-02-01T15:55:05;5.00;;;2.13;;
10661;SDS011;5379;51.034;7.006;2023-02-01T15:57:35;6.93;;;2.23;;
10661;SDS011;5379;51.034;7.006;2023-02-01T16:00:05;2.93;;;1.50;;
10661;SDS011;5379;51.034;7.006;2023-02-01T16:02:52;7.37;;;2.37;;
10661;SDS011;5379;51.034;7.006;2023-02-01T16:08:09;3.77;;;2.40;;
10661;SDS011;5379;51.034;7.006;2023-02-01T16:10:43;7.43;;;2.47;;
10661;SDS011;5379;51.034;7.006;2023-02-01T16:13:50;11.33;;;3.00;;
10661;SDS011;5379;51.034;7.006;2023-02-01T16:16:17;5.27;;;2.00;;
10661;SDS011;5379;51.034;7.006;2023-02-01T16:18:46;3.90;;;2.03;;
10661;SDS011;5379;51.034;7.006;2023-02-01T16:21:13;5.33;;;2.03;;
10661;SDS011;5379;51.034;7.006;2023-02-01T16:23:40;3.03;;;1.87;;
10661;SDS011;5379;51.034;7.006;2023-02-01T16:26:07;7.53;;;2.13;;
10661;SDS011;5379;51.034;7.006;2023-02-01T16:28:34;8.87;;;2.77;;
10661;SDS011;5379;51.034;7.006;2023-02-01T16:31:01;6.17;;;2.40;;
10661;SDS011;5379;51.034;7.006;2023-02-01T16:33:28;8.80;;;2.67;;
10661;SDS011;5379;51.034;7.006;2023-02-01T16:35:57;4.73;;;2.30;;
10661;SDS011;5379;51.034;7.006;2023-02-01T16:38:27;20.03;;;2.93;;
10661;SDS011;5379;51.034;7.006;2023-02-01T16:40:54;3.83;;;2.50;;
10661;SDS011;5379;51.034;7.006;2023-02-01T16:43:23;5.20;;;2.63;;
10661;SDS011;5379;51.034;7.006;2023-02-01T16:45:52;6.90;;;2.77;;
10661;SDS011;5379;51.034;7.006;2023-02-01T16:48:21;10.57;;;3.43;;
10661;SDS011;5379;51.034;7.006;2023-02-01T16:50:51;10.53;;;3.83;;
10661;SDS011;5379;51.034;7.006;2023-02-01T16:53:22;5.87;;;2.57;;
10661;SDS011;5379;51.034;7.006;2023-02-01T16:55:50;4.60;;;2.70;;
10661;SDS011;5379;51.034;7.006;2023-02-01T16:58:17;7.90;;;3.70;;
10661;SDS011;5379;51.034;7.006;2023-02-01T17:00:45;8.30;;;3.00;;
10661;SDS011;5379;51.034;7.006;2023-02-01T17:03:12;6.23;;;2.73;;
10661;SDS011;5379;51.034;7.006;2023-02-01T17:05:41;5.87;;;2.60;;
10661;SDS011;5379;51.034;7.006;2023-02-01T17:08:12;6.50;;;2.53;;
10661;SDS011;5379;51.034;7.006;2023-02-01T17:10:45;13.33;;;3.67;;
10661;SDS011;5379;51.034;7.006;2023-02-01T17:13:12;5.47;;;2.37;;
10661;SDS011;5379;51.034;7.006;2023-02-01T17:15:42;13.30;;;2.83;;
10661;SDS011;5379;51.034;7.006;2023-02-01T17:18:14;3.43;;;1.87;;
10661;SDS011;5379;51.034;7.006;2023-02-01T17:20:43;4.37;;;2.37;;
10661;SDS011;5379;51.034;7.006;2023-02-01T17:23:12;4.73;;;2.87;;
10661;SDS011;5379;51.034;7.006;2023-02-01T17:25:40;4.77;;;2.50;;
10661;SDS011;5379;51.034;7.006;2023-02-01T17:28:08;6.17;;;2.47;;
10661;SDS011;5379;51.034;7.006;2023-02-01T17:30:36;6.30;;;2.87;;
10661;SDS011;5379;51.034;7.006;2023-02-01T17:33:04;5.50;;;2.83;;
10661;SDS011;5379;51.034;7.006;2023-02-01T17:35:48;13.60;;;3.13;;
10661;SDS011;5379;51.034;7.006;2023-02-01T17:38:15;7.77;;;2.53;;
10661;SDS011;5379;51.034;7.006;2023-02-01T17:40:42;4.47;;;1.43;;
10661;SDS011;5379;51.034;7.006;2023-02-01T17:43:12;7.27;;;2.87;;
10661;SDS011;5379;51.034;7.006;2023-02-01T17:45:41;6.70;;;1.53;;
10661;SDS011;5379;51.034;7.006;2023-02-01T17:48:15;7.30;;;3.13;;
10661;SDS011;5379;51.034;7.006;2023-02-01T17:50:43;3.43;;;2.13;;
10661;SDS011;5379;51.034;7.006;2023-02-01T17:53:12;1.63;;;1.47;;
10661;SDS011;5379;51.034;7.006;2023-02-01T17:55:42;8.57;;;2.77;;
10661;SDS011;5379;51.034;7.006;2023-02-01T17:58:10;3.63;;;2.00;;
10661;SDS011;5379;51.034;7.006;2023-02-01T18:00:40;4.53;;;2.50;;
10661;SDS011;5379;51.034;7.006;2023-02-01T18:03:10;8.63;;;3.00;;
10661;SDS011;5379;51.034;7.006;2023-02-01T18:05:45;3.00;;;2.03;;
10661;SDS011;5379;51.034;7.006;2023-02-01T18:08:15;6.43;;;2.10;;
10661;SDS011;5379;51.034;7.006;2023-02-01T18:10:42;3.87;;;2.67;;
10661;SDS011;5379;51.034;7.006;2023-02-01T18:13:10;7.30;;;2.50;;
10661;SDS011;5379;51.034;7.006;2023-02-01T18:15:38;4.13;;;2.27;;
10661;SDS011;5379;51.034;7.006;2023-02-01T18:18:05;11.43;;;3.13;;
10661;SDS011;5379;51.034;7.006;2023-02-01T18:20:32;7.73;;;2.30;;
10661;SDS011;5379;51.034;7.006;2023-02-01T18:23:00;6.70;;;2.20;;
10661;SDS011;5379;51.034;7.006;2023-02-01T18:25:28;2.33;;;1.30;;
10661;SDS011;5379;51.034;7.006;2023-02-01T18:28:01;5.13;;;2.60;;
10661;SDS011;5379;51.034;7.006;2023-02-01T18:30:28;6.43;;;2.37;;
10661;SDS011;5379;51.034;7.006;2023-02-01T18:32:59;6.97;;;2.37;;
10661;SDS011;5379;51.034;7.006;2023-02-01T18:35:27;4.63;;;2.43;;
10661;SDS011;5379;51.034;7.006;2023-02-01T18:37:56;5.90;;;2.53;;
10661;SDS011;5379;51.034;7.006;2023-02-01T18:40:25;6.47;;;2.63;;
10661;SDS011;5379;51.034;7.006;2023-02-01T18:42:53;9.47;;;2.93;;
10661;SDS011;5379;51.034;7.006;2023-02-01T18:45:22;7.07;;;3.27;;
10661;SDS011;5379;51.034;7.006;2023-02-01T18:47:53;7.03;;;2.83;;
10661;SDS011;5379;51.034;7.006;2023-02-01T18:50:22;7.00;;;2.73;;
10661;SDS011;5379;51.034;7.006;2023-02-01T18:52:53;4.20;;;2.43;;
10661;SDS011;5379;51.034;7.006;2023-02-01T18:55:21;5.93;;;1.93;;
10661;SDS011;5379;51.034;7.006;2023-02-01T18:57:48;7.60;;;2.93;;
10661;SDS011;5379;51.034;7.006;2023-02-01T19:00:16;9.30;;;3.60;;
10661;SDS011;5379;51.034;7.006;2023-02-01T19:02:43;9.93;;;3.13;;
10661;SDS011;5379;51.034;7.006;2023-02-01T19:05:11;2.87;;;2.10;;
10661;SDS011;5379;51.034;7.006;2023-02-01T19:07:40;8.63;;;3.33;;
10661;SDS011;5379;51.034;7.006;2023-02-01T19:10:10;8.73;;;2.87;;
10661;SDS011;5379;51.034;7.006;2023-02-01T19:12:39;14.27;;;3.47;;
10661;SDS011;5379;51.034;7.006;2023-02-01T19:15:07;7.30;;;2.67;;
10661;SDS011;5379;51.034;7.006;2023-02-01T19:17:39;11.50;;;2.87;;
10661;SDS011;5379;51.034;7.006;2023-02-01T19:20:07;2.37;;;2.17;;
10661;SDS011;5379;51.034;7.006;2023-02-01T19:22:35;9.90;;;2.90;;
10661;SDS011;5379;51.034;7.006;2023-02-01T19:25:04;17.27;;;3.57;;
10661;SDS011;5379;51.034;7.006;2023-02-01T19:27:31;7.17;;;2.90;;
10661;SDS011;5379;51.034;7.006;2023-02-01T19:29:58;9.67;;;2.50;;
10661;SDS011;5379;51.034;7.006;2023-02-01T19:32:25;4.47;;;2.90;;
10661;SDS011;5379;51.034;7.006;2023-02-01T19:34:52;7.00;;;2.70;;
10661;SDS011;5379;51.034;7.006;2023-02-01T19:37:19;10.20;;;2.83;;
10661;SDS011;5379;51.034;7.006;2023-02-01T19:39:46;4.20;;;2.50;;
10661;SDS011;5379;51.034;7.006;2023-02-01T19:42:14;7.40;;;2.80;;
10661;SDS011;5379;51.034;7.006;2023-02-01T19:44:41;5.43;;;3.00;;
10661;SDS011;5379;51.034;7.006;2023-02-01T19:47:08;9.70;;;2.60;;
10661;SDS011;5379;51.034;7.006;2023-02-01T19:49:35;13.80;;;3.27;;
10661;SDS011;5379;51.034;7.006;2023-02-01T19:52:02;10.47;;;2.83;;
10661;SDS011;5379;51.034;7.006;2023-02-01T19:54:30;4.77;;;2.63;;
10661;SDS011;5379;51.034;7.006;2023-02-01T19:56:57;6.57;;;2.73;;
10661;SDS011;5379;51.034;7.006;2023-02-01T19:59:25;8.30;;;2.43;;
10661;SDS011;5379;51.034;7.006;2023-02-01T20:01:52;15.43;;;3.10;;
10661;SDS011;5379;51.034;7.006;2023-02-01T20:04:20;11.23;;;2.70;;
10661;SDS011;5379;51.034;7.006;2023-02-01T20:06:47;1.53;;;1.20;;
10661;SDS011;5379;51.034;7.006;2023-02-01T20:09:18;10.70;;;2.50;;
10661;SDS011;5379;51.034;7.006;2023-02-01T20:11:46;3.67;;;1.90;;
10661;SDS011;5379;51.034;7.006;2023-02-01T20:14:14;7.07;;;2.27;;
10661;SDS011;5379;51.034;7.006;2023-02-01T20:16:43;7.23;;;2.97;;
10661;SDS011;5379;51.034;7.006;2023-02-01T20:19:10;10.37;;;2.77;;
10661;SDS011;5379;51.034;7.006;2023-02-01T20:21:38;11.00;;;3.57;;
10661;SDS011;5379;51.034;7.006;2023-02-01T20:24:07;12.33;;;3.20;;
10661;SDS011;5379;51.034;7.006;2023-02-01T20:26:35;8.67;;;2.70;;
10661;SDS011;5379;51.034;7.006;2023-02-01T20:29:02;6.83;;;2.67;;
10661;SDS011;5379;51.034;7.006;2023-02-01T20:31:29;6.33;;;2.40;;